Time;durP1;ratioP1;P1;durP2;ratioP2;P2;SDS_P1;SDS_P2;PMS_P1;PMS_P2;Temp;Humidity;BMP_temperature;BMP_pressure;BME280_temperature;BME280_humidity;BME280_pressure;Samples;Min_cycle;Max_cycle;Signal;HPM_P1;HPM_P2
2021/12/16 00:06:55;;;;;;;44.17;25.15;;;;;;;8.10;100.00;102180.50;5043569;28;20041;-60
2021/12/16 00:09:14;;;;;;;44.60;25.58;;;;;;;8.11;100.00;102180.50;5036962;28;20199;-60
2021/12/16 00:28:59;;;;;;;48.67;26.38;;;;;;;8.11;100.00;102174.38;5034379;28;20057;-60
2021/12/16 00:31:21;;;;;;;44.60;26.10;;;;;;;8.15;100.00;102185.63;5038569;28;20111;-61
2021/12/16 00:34:08;;;;;;;48.20;26.88;;;;;;;8.17;100.00;102186.47;5054575;22;20338;-79
2021/12/16 00:36:37;;;;;;;50.90;27.17;;;;;;;8.17;100.00;102186.47;5034919;28;20524;-81
2021/12/16 00:39:09;;;;;;;47.30;27.50;;;;;;;8.13;100.00;102178.69;5011769;28;20053;-82
2021/12/16 00:41:39;;;;;;;47.42;28.23;;;;;;;8.19;100.00;102187.28;5027106;28;20102;-78
2021/12/16 00:47:35;;;;;;;45.17;25.73;;;;;;;8.16;100.00;102179.53;4998862;28;20347;-78
2021/12/16 00:50:20;;;;;;;46.55;27.17;;;;;;;8.16;100.00;102183.00;5045219;28;20160;-80
2021/12/16 00:58:46;;;;;;;54.90;29.48;;;;;;;8.15;100.00;102185.63;5043120;28;20056;-79
2021/12/16 01:01:35;;;;;;;48.67;26.35;;;;;;;8.11;100.00;102187.50;5065378;28;20095;-79
2021/12/16 01:04:29;;;;;;;50.60;29.65;;;;;;;8.04;100.00;102189.38;5062586;28;20051;-81
2021/12/16 01:10:13;;;;;;;49.22;27.58;;;;;;;8.03;100.00;102202.53;5041088;28;20557;-79
2021/12/16 01:33:39;;;;;;;45.03;25.80;;;;;;;7.98;100.00;102207.03;5045877;28;20093;-81
2021/12/16 01:38:11;;;;;;;55.15;29.15;;;;;;;7.80;100.00;102216.19;5066472;28;20482;-77
2021/12/16 01:45:37;;;;;;;51.55;27.77;;;;;;;7.75;100.00;102211.03;5058406;28;20147;-79
2021/12/16 01:49:27;;;;;;;56.83;29.02;;;;;;;7.72;100.00;102211.09;5055487;28;20123;-80
2021/12/16 01:52:10;;;;;;;62.13;30.65;;;;;;;7.63;100.00;102215.66;5048907;28;20143;-81
2021/12/16 01:57:17;;;;;;;64.22;33.17;;;;;;;7.60;100.00;102213.97;5059329;28;20041;-80
2021/12/16 01:59:55;;;;;;;58.92;29.02;;;;;;;7.58;100.00;102206.16;5026760;28;20082;-80
2021/12/16 02:02:38;;;;;;;51.53;27.35;;;;;;;7.63;100.00;102207.81;5042171;28;20118;-79
2021/12/16 02:05:40;;;;;;;50.42;26.80;;;;;;;7.64;100.00;102199.91;5041938;28;20059;-80
2021/12/16 02:08:27;;;;;;;49.33;26.45;;;;;;;7.67;100.00;102206.84;5044339;28;20402;-81
2021/12/16 02:11:32;;;;;;;46.40;25.27;;;;;;;7.73;100.00;102215.44;5026996;28;20411;-80
2021/12/16 02:31:14;;;;;;;35.20;19.88;;;;;;;7.76;100.00;102214.50;5031243;28;20044;-79
2021/12/16 02:36:26;;;;;;;32.95;18.90;;;;;;;7.70;100.00;102220.75;5035399;28;20056;-80
2021/12/16 02:39:11;;;;;;;31.88;19.35;;;;;;;7.67;100.00;102218.19;5066521;28;20151;-80
2021/12/16 02:48:39;;;;;;;28.75;16.73;;;;;;;7.67;100.00;102210.34;5040291;28;20140;-79
2021/12/16 02:51:32;;;;;;;30.55;17.75;;;;;;;7.68;100.00;102213.81;5012608;28;20046;-78
2021/12/16 02:54:04;;;;;;;27.27;15.63;;;;;;;7.66;100.00;102213.00;5010166;28;20048;-79
2021/12/16 02:56:32;;;;;;;28.25;17.02;;;;;;;7.65;100.00;102212.09;5023567;28;20049;-79
2021/12/16 02:58:59;;;;;;;29.10;16.27;;;;;;;7.65;100.00;102208.63;5015065;28;20495;-78
2021/12/16 03:01:47;;;;;;;24.10;14.05;;;;;;;7.66;100.00;102202.50;5009652;28;20139;-79
2021/12/16 03:04:17;;;;;;;28.20;17.23;;;;;;;7.66;100.00;102203.38;5009471;28;20044;-78
2021/12/16 03:06:48;;;;;;;28.10;16.73;;;;;;;7.67;100.00;102199.84;5013135;28;20132;-79
2021/12/16 03:09:18;;;;;;;29.50;16.67;;;;;;;7.66;100.00;102203.38;5026831;28;20384;-78
2021/12/16 03:12:30;;;;;;;22.58;15.10;;;;;;;7.66;100.00;102215.63;5028688;28;20049;-78
2021/12/16 03:14:49;;;;;;;25.77;15.95;;;;;;;7.69;100.00;102207.66;5027890;28;20045;-78
2021/12/16 03:20:18;;;;;;;26.15;15.15;;;;;;;7.66;100.00;102215.63;5015271;28;20049;-79
2021/12/16 03:23:12;;;;;;;24.00;13.68;;;;;;;7.66;100.00;102220.88;5009087;28;20064;-78
2021/12/16 03:26:03;;;;;;;23.23;13.00;;;;;;;7.65;100.00;102219.09;5017789;28;20060;-78
2021/12/16 03:29:02;;;;;;;25.00;14.85;;;;;;;7.64;100.00;102228.72;5037876;28;20135;-78
2021/12/16 03:34:27;;;;;;;27.45;14.60;;;;;;;7.66;100.00;102226.09;5020349;28;20049;-78
2021/12/16 03:37:19;;;;;;;26.48;13.50;;;;;;;7.64;100.00;102227.88;5036223;28;20037;-78
2021/12/16 03:40:00;;;;;;;28.65;14.45;;;;;;;7.65;100.00;102237.47;5002239;28;20132;-78
2021/12/16 03:42:37;;;;;;;25.50;15.60;;;;;;;7.67;100.00;102230.44;5020083;28;20148;-78
2021/12/16 03:46:25;;;;;;;21.95;13.70;;;;;;;7.67;100.00;102220.81;5037830;28;20394;-78
2021/12/16 03:47:57;;;;;;;26.80;14.85;;;;;;;7.70;100.00;102232.97;5015393;28;20132;-79
2021/12/16 03:50:24;;;;;;;22.65;13.95;;;;;;;7.74;100.00;102229.41;5008260;28;20132;-78
2021/12/16 03:52:52;;;;;;;26.60;15.15;;;;;;;7.76;100.00;102225.00;5012692;28;20049;-79
2021/12/16 03:55:19;;;;;;;21.15;13.20;;;;;;;7.73;100.00;102232.91;5039254;28;20119;-78
2021/12/16 03:57:46;;;;;;;23.55;14.23;;;;;;;7.75;100.00;102234.63;5016337;28;20438;-78
2021/12/16 04:00:18;;;;;;;23.48;14.65;;;;;;;7.75;100.00;102241.63;5006105;28;20418;-77
2021/12/16 04:02:46;;;;;;;25.33;13.77;;;;;;;7.72;100.00;102237.31;5013099;28;20646;-79
2021/12/16 04:05:14;;;;;;;24.88;14.63;;;;;;;7.68;100.00;102243.50;5030212;28;20599;-78
2021/12/16 04:07:42;;;;;;;22.25;12.77;;;;;;;7.70;100.00;102246.09;5031553;28;20095;-78
2021/12/16 04:10:15;;;;;;;25.05;12.15;;;;;;;7.70;100.00;102244.34;5013805;28;20060;-78
2021/12/16 04:12:43;;;;;;;18.55;12.13;;;;;;;7.74;100.00;102242.50;5024243;28;20041;-78
2021/12/16 04:15:11;;;;;;;21.08;12.43;;;;;;;7.68;100.00;102242.66;5035602;28;20503;-76
2021/12/16 04:17:38;;;;;;;21.73;11.38;;;;;;;7.76;100.00;102240.72;5027635;28;20071;-76
2021/12/16 04:20:11;;;;;;;16.83;10.55;;;;;;;7.73;100.00;102246.03;5036753;28;20045;-75
2021/12/16 04:22:43;;;;;;;22.58;12.77;;;;;;;7.73;100.00;102243.41;5042403;28;20486;-76
2021/12/16 04:25:18;;;;;;;23.73;13.45;;;;;;;7.68;100.00;102234.78;5022682;28;20041;-78
2021/12/16 04:27:46;;;;;;;23.48;12.90;;;;;;;7.73;100.00;102244.25;5012713;28;20124;-78
2021/12/16 04:30:14;;;;;;;19.50;12.70;;;;;;;7.76;100.00;102246.84;5010435;28;20063;-77
2021/12/16 04:32:42;;;;;;;17.80;11.35;;;;;;;7.75;100.00;102242.50;5006118;28;20037;-77
2021/12/16 04:35:09;;;;;;;22.00;11.23;;;;;;;7.73;100.00;102239.03;5037536;28;20076;-78
2021/12/16 04:37:37;;;;;;;19.83;12.48;;;;;;;7.71;100.00;102259.19;5026943;28;20586;-78
2021/12/16 04:40:08;;;;;;;23.67;11.43;;;;;;;7.70;100.00;102251.31;5006765;28;20045;-78
2021/12/16 04:42:37;;;;;;;20.98;12.00;;;;;;;7.74;100.00;102260.84;4995055;28;20080;-78
2021/12/16 04:45:09;;;;;;;20.70;12.18;;;;;;;7.73;100.00;102252.13;5024487;28;20158;-77
2021/12/16 04:47:38;;;;;;;22.48;12.35;;;;;;;7.73;100.00;102260.00;5012948;28;20049;-77
2021/12/16 04:50:07;;;;;;;21.73;11.32;;;;;;;7.67;100.00;102268.00;4990298;28;20130;-78
2021/12/16 04:52:34;;;;;;;21.77;12.45;;;;;;;7.73;100.00;102264.38;5006880;28;20182;-77
2021/12/16 04:55:06;;;;;;;18.40;11.55;;;;;;;7.75;100.00;102267.84;5007476;28;20135;-77
2021/12/16 04:57:33;;;;;;;21.42;13.23;;;;;;;7.73;100.00;102272.25;5009347;28;20469;-77
2021/12/16 05:00:00;;;;;;;23.15;13.80;;;;;;;7.72;100.00;102275.75;5001919;28;20049;-77
2021/12/16 05:02:28;;;;;;;24.52;13.57;;;;;;;7.66;100.00;102268.91;4993728;28;20052;-77
2021/12/16 05:04:55;;;;;;;25.00;14.75;;;;;;;7.71;100.00;102269.66;4993704;28;20037;-78
2021/12/16 05:07:23;;;;;;;25.13;13.80;;;;;;;7.60;100.00;102269.00;5045717;28;20043;-78
2021/12/16 05:12:35;;;;;;;24.35;14.88;;;;;;;7.56;100.00;102273.44;5017626;28;20139;-78
2021/12/16 05:15:04;;;;;;;28.20;16.05;;;;;;;7.51;100.00;102279.66;5015170;28;20436;-78
2021/12/16 05:17:38;;;;;;;28.13;15.82;;;;;;;7.48;100.00;102280.63;4998917;28;20129;-77
2021/12/16 05:20:10;;;;;;;29.70;17.05;;;;;;;7.51;100.00;102290.16;4992453;28;20063;-78
2021/12/16 05:25:47;;;;;;;28.85;15.82;;;;;;;7.53;100.00;102289.25;5018580;28;20136;-76
2021/12/16 05:28:17;;;;;;;31.83;17.38;;;;;;;7.45;100.00;102296.38;5018526;28;20187;-76
2021/12/16 05:30:44;;;;;;;29.40;16.75;;;;;;;7.49;100.00;102287.56;5015327;28;20406;-76
2021/12/16 05:33:12;;;;;;;33.08;16.77;;;;;;;7.44;100.00;102299.03;5033237;28;20041;-76
2021/12/16 05:35:40;;;;;;;30.70;18.13;;;;;;;7.40;100.00;102303.47;5014339;28;20474;-76
2021/12/16 05:38:07;;;;;;;28.65;17.73;;;;;;;7.40;100.00;102298.22;4991889;28;20126;-76
2021/12/16 05:40:34;;;;;;;34.85;18.00;;;;;;;7.30;100.00;102299.31;4991378;28;20551;-76
2021/12/16 05:43:07;;;;;;;31.23;16.65;;;;;;;7.27;100.00;102297.59;5016538;28;20053;-76
2021/12/16 05:45:35;;;;;;;32.90;17.98;;;;;;;7.22;100.00;102311.69;5042295;28;20209;-76
2021/12/16 05:48:05;;;;;;;35.75;19.63;;;;;;;7.17;100.00;102301.28;5002107;28;20140;-76
2021/12/16 05:50:34;;;;;;;33.60;20.25;;;;;;;7.14;100.00;102303.09;5027694;28;20112;-76
2021/12/16 05:53:08;;;;;;;33.97;19.25;;;;;;;7.15;100.00;102308.28;5030793;28;20091;-76
2021/12/16 05:55:39;;;;;;;37.92;19.15;;;;;;;7.17;100.00;102317.00;5010363;28;20071;-76
2021/12/16 05:58:07;;;;;;;33.20;20.25;;;;;;;7.10;100.00;102318.84;5008749;28;21553;-76
2021/12/16 06:00:39;;;;;;;41.20;20.48;;;;;;;7.16;100.00;102319.63;5027450;28;20046;-76
2021/12/16 06:03:06;;;;;;;36.40;18.77;;;;;;;7.17;100.00;102316.13;5026371;28;20128;-75
2021/12/16 06:05:33;;;;;;;31.15;18.63;;;;;;;7.05;100.00;102322.44;5015145;28;20474;-77
2021/12/16 06:08:01;;;;;;;31.00;16.08;;;;;;;6.99;100.00;102325.16;5019050;28;22231;-76
2021/12/16 06:11:06;;;;;;;30.42;16.75;;;;;;;7.00;100.00;102332.13;5030678;28;20200;-77
2021/12/16 06:13:19;;;;;;;31.27;16.88;;;;;;;6.97;100.00;102325.19;5018012;28;20179;-75
2021/12/16 06:26:49;;;;;;;29.23;16.17;;;;;;;6.97;100.00;102342.66;5023830;28;20063;-76
2021/12/16 06:29:17;;;;;;;42.90;17.73;;;;;;;6.94;100.00;102338.34;5038204;28;20099;-76
2021/12/16 06:31:46;;;;;;;26.67;17.13;;;;;;;6.94;100.00;102337.47;5005505;28;20162;-77
2021/12/16 06:34:15;;;;;;;35.60;17.60;;;;;;;6.90;100.00;102339.28;5016316;28;20088;-76
2021/12/16 06:36:55;;;;;;;30.10;16.55;;;;;;;6.98;100.00;102341.75;4997068;28;20127;-78
2021/12/16 06:39:22;;;;;;;32.75;15.63;;;;;;;6.94;100.00;102340.09;5030231;28;20621;-75
2021/12/16 06:41:50;;;;;;;32.97;17.02;;;;;;;6.98;100.00;102336.50;5021370;28;20064;-77
2021/12/16 06:44:43;;;;;;;31.33;16.50;;;;;;;6.97;100.00;102345.25;5030412;28;20064;-76
2021/12/16 06:47:10;;;;;;;31.88;17.35;;;;;;;6.95;100.00;102350.53;5024630;28;20076;-76
2021/12/16 06:49:40;;;;;;;29.17;15.98;;;;;;;6.97;100.00;102351.34;5030457;28;20573;-76
2021/12/16 06:52:11;;;;;;;29.35;16.58;;;;;;;6.98;100.00;102346.97;5011254;28;20144;-77
2021/12/16 06:55:02;;;;;;;27.50;15.98;;;;;;;6.99;100.00;102346.13;5005600;28;20148;-76
2021/12/16 07:00:09;;;;;;;39.00;18.50;;;;;;;7.01;100.00;102354.81;5012235;28;20112;-77
2021/12/16 07:05:11;;;;;;;41.15;20.77;;;;;;;7.03;100.00;102366.13;5023928;28;20405;-76
2021/12/16 07:07:38;;;;;;;42.92;20.58;;;;;;;7.03;100.00;102360.91;4999540;28;20099;-76
2021/12/16 07:10:08;;;;;;;41.47;19.70;;;;;;;7.09;100.00;102369.50;5010080;28;20127;-76
2021/12/16 07:12:37;;;;;;;33.92;17.17;;;;;;;7.09;100.00;102372.13;5025506;28;20052;-76
2021/12/16 07:15:08;;;;;;;37.33;17.98;;;;;;;7.09;100.00;102371.25;5021860;28;20076;-76
2021/12/16 07:17:37;;;;;;;34.97;17.50;;;;;;;7.08;100.00;102378.25;5024155;28;20044;-76
2021/12/16 07:20:07;;;;;;;41.53;17.63;;;;;;;7.08;100.00;102375.63;5004822;28;20045;-77
2021/12/16 07:22:35;;;;;;;37.28;16.58;;;;;;;7.10;100.00;102373.84;5032577;28;20083;-76
2021/12/16 07:25:05;;;;;;;28.90;16.42;;;;;;;7.10;100.00;102362.50;5015513;28;20335;-76
2021/12/16 07:27:34;;;;;;;27.00;16.52;;;;;;;7.10;100.00;102379.06;5012333;28;20047;-76
2021/12/16 07:30:05;;;;;;;36.38;16.40;;;;;;;7.10;100.00;102394.78;5023264;28;20136;-74
2021/12/16 07:32:33;;;;;;;33.88;16.23;;;;;;;7.16;100.00;102400.81;5020809;28;20075;-75
2021/12/16 07:35:00;;;;;;;30.55;16.20;;;;;;;7.16;100.00;102408.66;5029980;28;20048;-76
2021/12/16 07:37:27;;;;;;;29.25;16.58;;;;;;;7.15;100.00;102407.81;5002902;28;20041;-77
2021/12/16 07:39:55;;;;;;;40.78;16.52;;;;;;;7.15;100.00;102412.19;5015463;28;20074;-78
2021/12/16 07:42:30;;;;;;;32.97;16.80;;;;;;;7.19;100.00;102419.97;5019634;28;20073;-78
2021/12/16 07:44:57;;;;;;;31.73;16.42;;;;;;;7.25;100.00;102419.00;5023837;28;20051;-79
2021/12/16 07:47:24;;;;;;;34.88;15.85;;;;;;;7.20;100.00;102418.22;5016746;28;20073;-75
2021/12/16 07:49:52;;;;;;;29.98;16.13;;;;;;;7.26;100.00;102426.00;5044742;28;20110;-77
2021/12/16 07:52:20;;;;;;;30.42;15.50;;;;;;;7.27;100.00;102422.47;5016067;28;20049;-78
2021/12/16 07:54:48;;;;;;;24.65;15.52;;;;;;;7.19;100.00;102424.34;5039753;28;20057;-79
2021/12/16 07:57:15;;;;;;;33.72;15.68;;;;;;;7.24;100.00;102425.13;5018752;28;20080;-79
2021/12/16 07:59:42;;;;;;;29.83;15.98;;;;;;;7.27;100.00;102431.19;5024405;28;20521;-78
2021/12/16 08:02:11;;;;;;;27.75;14.93;;;;;;;7.29;100.00;102426.78;5031198;28;20099;-81
2021/12/16 08:04:42;;;;;;;31.40;15.52;;;;;;;7.29;100.00;102439.88;5007413;28;20302;-77
2021/12/16 08:07:14;;;;;;;36.33;16.35;;;;;;;7.31;100.00;102425.03;5014236;28;20140;-80
2021/12/16 08:09:42;;;;;;;32.72;15.93;;;;;;;7.27;100.00;102425.97;5019270;28;20104;-79
2021/12/16 08:12:12;;;;;;;30.23;13.57;;;;;;;7.28;100.00;102438.16;5019037;28;20045;-80
2021/12/16 08:14:41;;;;;;;28.85;15.73;;;;;;;7.20;100.00;102433.94;5033943;28;20098;-80
2021/12/16 08:17:09;;;;;;;25.80;14.68;;;;;;;7.26;100.00;102445.19;5021676;28;20065;-80
2021/12/16 08:19:36;;;;;;;30.55;15.30;;;;;;;7.25;100.00;102451.31;5016653;28;20053;-81
2021/12/16 08:22:04;;;;;;;33.40;15.85;;;;;;;7.28;100.00;102448.63;5031325;28;20122;-79
2021/12/16 08:24:33;;;;;;;33.33;14.75;;;;;;;7.29;100.00;102439.00;5015747;28;20059;-80
2021/12/16 08:27:07;;;;;;;32.40;14.70;;;;;;;7.33;100.00;102438.09;5042203;28;20124;-79
2021/12/16 08:29:34;;;;;;;35.20;16.13;;;;;;;7.37;100.00;102434.53;5005904;28;20083;-79
2021/12/16 08:32:02;;;;;;;26.10;14.05;;;;;;;7.38;100.00;102446.72;5024669;28;20053;-79
2021/12/16 08:34:32;;;;;;;24.33;14.25;;;;;;;7.36;100.00;102456.38;5015762;28;20077;-80
2021/12/16 08:37:00;;;;;;;23.35;14.00;;;;;;;7.36;100.00;102457.25;5015070;28;20076;-79
2021/12/16 08:39:28;;;;;;;23.48;14.10;;;;;;;7.43;100.00;102459.75;5016605;28;20059;-77
2021/12/16 08:41:57;;;;;;;23.83;13.80;;;;;;;7.46;100.00;102457.94;5068333;28;20057;-78
2021/12/16 08:44:25;;;;;;;27.55;14.45;;;;;;;7.48;100.00;102463.19;5004685;28;20111;-78
2021/12/16 08:46:57;;;;;;;22.35;13.20;;;;;;;7.49;100.00;102464.91;5043593;28;20075;-78
2021/12/16 08:49:25;;;;;;;29.80;13.57;;;;;;;7.52;100.00;102468.34;5034720;28;20091;-79
2021/12/16 08:51:55;;;;;;;24.55;12.43;;;;;;;7.52;100.00;102462.22;5037308;28;20135;-80
2021/12/16 08:54:23;;;;;;;24.35;14.07;;;;;;;7.50;100.00;102477.13;5032423;28;20076;-78
2021/12/16 08:56:51;;;;;;;32.42;15.07;;;;;;;7.51;100.00;102486.69;5019672;28;20176;-78
2021/12/16 08:59:19;;;;;;;24.10;13.48;;;;;;;7.49;100.00;102485.88;5019132;28;20064;-78
2021/12/16 09:01:49;;;;;;;21.45;12.65;;;;;;;7.49;100.00;102485.88;5035864;28;20148;-79
2021/12/16 09:04:19;;;;;;;24.42;13.82;;;;;;;7.54;100.00;102491.91;5030375;28;20304;-80
2021/12/16 09:06:47;;;;;;;20.27;12.95;;;;;;;7.56;100.00;102488.34;5034961;28;20147;-78
2021/12/16 09:09:15;;;;;;;23.75;14.52;;;;;;;7.66;100.00;102490.84;5004782;28;20057;-79
2021/12/16 09:12:03;;;;;;;24.20;14.02;;;;;;;7.70;100.00;102495.13;5035636;28;20079;-78
2021/12/16 09:14:32;;;;;;;25.83;12.65;;;;;;;7.74;100.00;102502.03;5020929;28;20049;-80
2021/12/16 09:16:59;;;;;;;22.42;12.88;;;;;;;7.80;100.00;102499.34;5045007;28;20436;-80
2021/12/16 09:19:26;;;;;;;39.15;14.00;;;;;;;7.82;100.00;102508.03;5049728;28;20534;-80
2021/12/16 09:21:54;;;;;;;30.58;13.20;;;;;;;7.82;100.00;102514.13;5053913;28;20068;-80
2021/12/16 09:24:21;;;;;;;26.88;13.07;;;;;;;7.82;100.00;102498.41;5027084;28;20546;-81
2021/12/16 09:26:48;;;;;;;23.83;13.95;;;;;;;7.76;100.00;102497.66;5038470;28;20049;-79
2021/12/16 09:29:19;;;;;;;20.05;12.50;;;;;;;7.79;100.00;102489.72;5027530;28;20597;-81
2021/12/16 09:31:46;;;;;;;18.10;12.73;;;;;;;7.86;100.00;102496.59;5036879;28;20048;-80
2021/12/16 09:34:13;;;;;;;22.77;13.18;;;;;;;7.84;100.00;102509.75;5034193;28;20064;-81
2021/12/16 09:36:43;;;;;;;18.88;12.20;;;;;;;7.84;100.00;102524.63;5035449;28;20076;-80
2021/12/16 09:39:16;;;;;;;22.42;12.20;;;;;;;7.85;100.00;102527.19;5034880;28;20079;-80
2021/12/16 09:41:47;;;;;;;20.13;11.60;;;;;;;7.84;100.00;102530.72;5027710;28;20115;-79
2021/12/16 09:44:16;;;;;;;25.33;13.45;;;;;;;7.84;100.00;102533.34;5049058;28;20071;-80
2021/12/16 09:46:45;;;;;;;26.00;12.82;;;;;;;7.89;100.00;102533.25;5019601;28;20367;-80
2021/12/16 09:49:13;;;;;;;24.45;13.02;;;;;;;7.92;100.00;102537.56;5011957;28;20052;-79
2021/12/16 09:51:46;;;;;;;27.25;13.88;;;;;;;7.90;100.00;102537.59;5016199;28;20146;-79
2021/12/16 09:54:17;;;;;;;23.88;12.30;;;;;;;7.93;100.00;102518.34;5036569;28;20533;-80
2021/12/16 09:56:48;;;;;;;26.75;12.40;;;;;;;7.95;100.00;102517.41;5022391;28;20068;-80
2021/12/16 09:59:16;;;;;;;21.77;11.88;;;;;;;7.96;100.00;102523.50;5034610;28;20049;-79
2021/12/16 10:01:47;;;;;;;17.77;11.00;;;;;;;7.94;100.00;102517.44;5006088;28;20154;-79
2021/12/16 10:04:19;;;;;;;22.88;12.63;;;;;;;7.98;100.00;102519.97;5019852;28;20135;-78
2021/12/16 10:06:50;;;;;;;20.25;12.80;;;;;;;8.02;100.00;102521.66;5034090;28;20057;-79
2021/12/16 10:09:18;;;;;;;23.80;11.50;;;;;;;8.01;100.00;102512.03;5037574;28;20249;-80
2021/12/16 10:11:49;;;;;;;25.02;11.15;;;;;;;8.05;100.00;102520.72;4991599;28;20067;-79
2021/12/16 10:14:31;;;;;;;20.23;11.88;;;;;;;8.06;100.00;102518.09;5022206;28;20328;-80
2021/12/16 10:19:46;;;;;;;14.90;10.02;;;;;;;8.16;100.00;102520.56;5016054;28;20033;-81
2021/12/16 10:22:22;;;;;;;21.50;11.05;;;;;;;8.09;100.00;102520.63;5024796;28;20176;-79
2021/12/16 10:24:52;;;;;;;19.67;11.10;;;;;;;8.20;100.00;102523.09;5003906;28;20060;-78
2021/12/16 10:27:26;;;;;;;19.10;11.32;;;;;;;8.25;100.00;102518.63;5008926;28;20537;-78
2021/12/16 10:30:03;;;;;;;18.35;10.05;;;;;;;8.29;100.00;102522.91;5024398;28;20639;-78
2021/12/16 10:32:40;;;;;;;17.98;10.32;;;;;;;8.19;100.00;102526.59;5024959;28;20076;-80
2021/12/16 10:35:14;;;;;;;16.73;10.00;;;;;;;8.25;100.00;102515.13;5022708;28;20155;-79
2021/12/16 10:37:45;;;;;;;17.70;10.50;;;;;;;8.32;100.00;102514.09;5027395;28;20064;-80
2021/12/16 10:41:01;;;;;;;21.38;10.02;;;;;;;8.41;100.00;102507.84;5006070;28;20150;-81
2021/12/16 10:43:29;;;;;;;16.65;10.45;;;;;;;8.39;100.00;102517.53;4990352;28;20187;-80
2021/12/16 10:46:10;;;;;;;15.52;9.82;;;;;;;8.42;100.00;102525.31;4993092;28;20080;-80
2021/12/16 10:48:48;;;;;;;18.23;9.25;;;;;;;8.48;100.00;102522.59;5010956;28;20661;-80
2021/12/16 10:51:32;;;;;;;13.55;8.95;;;;;;;8.55;100.00;102529.41;5005350;28;20148;-80
2021/12/16 10:54:31;;;;;;;13.27;8.10;;;;;;;8.60;100.00;102527.56;5007846;28;20144;-80
2021/12/16 10:57:25;;;;;;;14.95;8.88;;;;;;;8.68;100.00;102527.41;5014608;28;20045;-79
2021/12/16 10:59:54;;;;;;;12.00;8.10;;;;;;;8.80;100.00;102530.66;4992849;28;20159;-80
2021/12/16 11:02:27;;;;;;;12.07;7.55;;;;;;;8.75;100.00;102531.66;5043765;28;20608;-80
2021/12/16 11:05:02;;;;;;;13.60;6.95;;;;;;;8.72;100.00;102531.72;5008789;28;20140;-80
2021/12/16 11:07:33;;;;;;;15.02;6.88;;;;;;;8.80;100.00;102535.06;5010289;28;20140;-80
2021/12/16 11:10:29;;;;;;;10.25;5.88;;;;;;;8.90;100.00;102531.31;5005743;28;20072;-79
2021/12/16 11:13:02;;;;;;;15.15;7.97;;;;;;;8.97;100.00;102539.97;5007484;28;20065;-80
2021/12/16 11:15:44;;;;;;;10.15;6.38;;;;;;;9.02;100.00;102548.59;5007894;28;20411;-79
2021/12/16 11:18:13;;;;;;;10.18;6.75;;;;;;;9.06;100.00;102552.88;5013189;28;20095;-80
2021/12/16 11:20:55;;;;;;;11.50;7.07;;;;;;;9.28;100.00;102543.63;5026021;28;20041;-78
2021/12/16 11:23:22;;;;;;;19.23;6.90;;;;;;;9.47;100.00;102543.19;5043949;28;20281;-78
2021/12/16 11:25:55;;;;;;;10.63;5.65;;;;;;;9.57;100.00;102535.03;5006343;28;20112;-80
2021/12/16 11:28:31;;;;;;;7.45;4.57;;;;;;;10.00;100.00;102538.38;5021849;28;20057;-79
2021/12/16 11:31:04;;;;;;;8.95;5.00;;;;;;;10.05;100.00;102536.50;5005413;28;20053;-79
2021/12/16 11:33:38;;;;;;;12.18;4.82;;;;;;;10.00;100.00;102530.50;5008600;28;20057;-80
2021/12/16 11:36:22;;;;;;;7.70;4.30;;;;;;;10.27;99.12;102526.28;5040723;28;20075;-80
2021/12/16 11:39:00;;;;;;;11.57;5.15;;;;;;;10.67;96.47;102533.91;5005045;28;20124;-79
2021/12/16 11:42:06;;;;;;;9.27;4.82;;;;;;;10.71;95.36;102527.66;4987935;28;20052;-81
2021/12/16 11:44:39;;;;;;;8.43;5.25;;;;;;;10.75;95.03;102528.44;4943725;28;20054;-79
2021/12/16 11:47:15;;;;;;;11.27;5.32;;;;;;;11.00;93.66;102534.69;4969390;28;20050;-79
2021/12/16 11:49:56;;;;;;;8.40;5.05;;;;;;;10.53;94.88;102536.94;5009301;28;20065;-80
2021/12/16 11:52:35;;;;;;;9.07;4.75;;;;;;;10.30;95.58;102531.44;5024460;28;20882;-80
2021/12/16 11:55:09;;;;;;;10.77;4.65;;;;;;;10.14;96.28;102537.09;5021864;28;20053;-81
2021/12/16 11:57:40;;;;;;;12.38;4.70;;;;;;;10.14;96.87;102547.63;5005170;28;20140;-80
2021/12/16 12:00:21;;;;;;;9.25;4.95;;;;;;;10.28;96.73;102551.69;5007301;28;20080;-80
2021/12/16 12:02:51;;;;;;;6.85;3.97;;;;;;;10.23;95.28;102554.44;5045633;28;20251;-80
2021/12/16 12:05:59;;;;;;;9.07;5.45;;;;;;;10.89;92.77;102552.59;5027386;28;20063;-78
2021/12/16 12:08:30;;;;;;;10.05;4.50;;;;;;;10.94;91.44;102558.59;4939892;28;21477;-79
2021/12/16 12:11:06;;;;;;;7.07;3.92;;;;;;;10.59;90.90;102555.22;4930743;28;20059;-79
2021/12/16 12:13:37;;;;;;;6.97;3.38;;;;;;;10.50;92.67;102554.63;4987790;28;20579;-80
2021/12/16 12:16:12;;;;;;;6.03;3.70;;;;;;;10.50;93.81;102560.75;5010544;28;20530;-79
2021/12/16 12:18:57;;;;;;;7.43;4.20;;;;;;;10.56;92.73;102571.09;5027767;28;20049;-80
2021/12/16 12:21:37;;;;;;;6.60;4.33;;;;;;;10.57;92.30;102566.69;5007745;28;20032;-80
2021/12/16 12:24:13;;;;;;;10.60;5.30;;;;;;;10.49;93.08;102576.56;5013658;28;20837;-81
2021/12/16 12:26:46;;;;;;;11.13;4.70;;;;;;;10.63;89.72;102571.81;5015333;28;20049;-81
2021/12/16 12:29:17;;;;;;;9.50;4.20;;;;;;;13.01;80.38;102559.53;5044627;28;20140;-82
2021/12/16 12:31:49;;;;;;;6.95;3.65;;;;;;;15.86;67.42;102559.34;5015194;28;20065;-80
2021/12/16 12:34:17;;;;;;;7.70;3.25;;;;;;;15.85;63.58;102559.38;5031757;28;20107;-79
2021/12/16 12:36:46;;;;;;;8.35;3.80;;;;;;;16.64;59.22;102559.72;4992058;28;20095;-79
2021/12/16 12:39:18;;;;;;;7.90;3.00;;;;;;;17.07;58.84;102566.25;5013206;28;20048;-81
2021/12/16 12:41:47;;;;;;;8.23;4.20;;;;;;;17.95;54.07;102559.44;4998587;28;20451;-80
2021/12/16 12:44:14;;;;;;;4.35;2.60;;;;;;;15.87;58.65;102561.03;5036863;28;20055;-80
2021/12/16 12:46:42;;;;;;;7.63;2.85;;;;;;;15.75;59.90;102559.00;5031181;28;20618;-80
2021/12/16 12:49:15;;;;;;;8.32;2.97;;;;;;;15.77;59.92;102557.13;5020464;28;20029;-80
2021/12/16 12:51:45;;;;;;;4.10;2.80;;;;;;;16.59;57.98;102551.97;5043043;28;20093;-79
2021/12/16 12:54:21;;;;;;;5.47;2.78;;;;;;;17.07;56.75;102544.97;5075738;28;20055;-80
2021/12/16 12:56:49;;;;;;;9.55;2.95;;;;;;;17.79;53.35;102543.53;5054833;28;20123;-82
2021/12/16 12:59:18;;;;;;;5.53;2.47;;;;;;;18.94;49.21;102545.34;5033524;28;20091;-81
2021/12/16 13:01:54;;;;;;;7.00;2.92;;;;;;;18.79;49.13;102548.16;5017523;28;20048;-79
2021/12/16 13:04:25;;;;;;;10.80;2.80;;;;;;;20.93;44.96;102549.69;4998722;28;20459;-79
2021/12/16 13:07:12;;;;;;;6.97;2.85;;;;;;;21.83;42.75;102548.38;5036290;28;20109;-79
2021/12/16 13:09:46;;;;;;;5.78;2.35;;;;;;;22.85;39.32;102544.00;5049617;28;20076;-80
2021/12/16 13:12:35;;;;;;;7.07;2.63;;;;;;;23.19;38.28;102551.06;5030272;28;20131;-80
2021/12/16 13:26:41;;;;;;;5.53;2.30;;;;;;;22.95;36.97;102534.25;5036479;28;20522;-78
2021/12/16 13:32:12;;;;;;;9.80;2.97;;;;;;;21.85;38.49;102537.56;5032776;28;20506;-78
2021/12/16 13:34:49;;;;;;;5.82;2.30;;;;;;;23.47;36.03;102538.03;5036576;28;20113;-78
2021/12/16 13:37:29;;;;;;;10.85;2.60;;;;;;;23.78;34.95;102524.72;5032325;28;20045;-79
2021/12/16 13:40:01;;;;;;;6.05;2.08;;;;;;;24.31;34.01;102530.00;5022046;28;20139;-79
2021/12/16 13:42:41;;;;;;;6.78;2.53;;;;;;;23.69;34.13;102537.97;5001163;28;20073;-79
2021/12/16 13:45:21;;;;;;;7.95;2.58;;;;;;;24.28;33.81;102533.81;5019339;28;20576;-79
2021/12/16 14:02:26;;;;;;;8.40;2.50;;;;;;;18.03;46.67;102565.19;5054701;28;20040;-61
2021/12/16 14:05:05;;;;;;;8.68;2.65;;;;;;;17.48;48.99;102575.53;5065461;28;20060;-60
2021/12/16 14:07:58;;;;;;;7.40;2.80;;;;;;;16.77;50.52;102575.91;5068503;28;20056;-61
2021/12/16 14:10:54;;;;;;;6.13;2.60;;;;;;;14.82;56.09;102582.88;5059981;28;20051;-60
2021/12/16 14:25:01;;;;;;;11.02;3.35;;;;;;;12.33;68.05;102595.47;5067219;28;20052;-59